Time;durP1;ratioP1;P1;durP2;ratioP2;P2;SDS_P1;SDS_P2;PMS_P1;PMS_P2;Temp;Humidity;BMP_temperature;BMP_pressure;BME280_temperature;BME280_humidity;BME280_pressure;Samples;Min_cycle;Max_cycle;Signal;HPM_P1;HPM_P2
2022/12/04 00:00:56;;;;;;;69.80;30.80;;;;;;;2.03;79.08;101860.94;5069084;28;20027;-48
2022/12/04 00:03:21;;;;;;;67.05;30.63;;;;;;;2.06;78.94;101861.19;5070226;28;20393;-49
2022/12/04 00:05:47;;;;;;;67.68;31.40;;;;;;;2.05;79.01;101858.50;5069403;28;20362;-48
2022/12/04 00:08:12;;;;;;;69.40;32.03;;;;;;;2.06;79.00;101857.72;5069502;28;20024;-45
2022/12/04 00:10:42;;;;;;;69.15;30.92;;;;;;;2.08;79.17;101854.56;5068932;28;20031;-49
2022/12/04 00:13:08;;;;;;;68.00;31.20;;;;;;;2.06;79.27;101857.72;5069532;28;20044;-49
2022/12/04 00:15:33;;;;;;;65.78;31.02;;;;;;;2.08;79.11;101849.50;5069215;28;20028;-45
2022/12/04 00:17:59;;;;;;;69.75;32.10;;;;;;;2.10;78.90;101855.56;5069798;28;20032;-48
2022/12/04 00:20:24;;;;;;;74.40;32.83;;;;;;;2.05;78.74;101844.16;5068033;28;20112;-47
2022/12/04 00:22:49;;;;;;;71.03;33.00;;;;;;;2.07;78.97;101844.31;5069432;28;20040;-49
2022/12/04 00:25:15;;;;;;;71.65;32.63;;;;;;;2.07;79.10;101842.66;5067502;28;20441;-48
2022/12/04 00:27:40;;;;;;;66.60;30.70;;;;;;;2.08;78.91;101844.41;5069709;28;20074;-47
2022/12/04 00:30:06;;;;;;;70.68;32.10;;;;;;;2.08;78.99;101846.97;5068353;28;20108;-48
2022/12/04 00:32:32;;;;;;;68.30;32.05;;;;;;;2.12;78.81;101840.44;5068740;28;20079;-48
2022/12/04 00:34:57;;;;;;;69.82;30.95;;;;;;;2.12;78.79;101832.84;5069813;28;20056;-48
2022/12/04 00:37:22;;;;;;;68.32;31.88;;;;;;;2.08;78.68;101838.47;5069141;28;20031;-45
2022/12/04 00:39:48;;;;;;;62.80;30.63;;;;;;;2.03;78.99;101835.56;5068863;28;20094;-48
2022/12/04 00:42:13;;;;;;;69.32;31.45;;;;;;;1.97;79.04;101836.75;5067619;28;20532;-49
2022/12/04 00:44:38;;;;;;;71.07;31.63;;;;;;;1.92;79.46;101840.56;5068702;28;20469;-48
2022/12/04 00:47:04;;;;;;;69.40;32.25;;;;;;;1.93;79.30;101838.13;5069449;28;20425;-48
2022/12/04 00:49:29;;;;;;;70.07;31.50;;;;;;;1.94;79.34;101839.03;5067266;28;20377;-50
2022/12/04 00:51:54;;;;;;;69.95;31.90;;;;;;;1.91;80.07;101826.13;5070128;28;20127;-46
2022/12/04 00:54:20;;;;;;;64.35;31.10;;;;;;;1.94;79.76;101834.84;5068113;28;20107;-48
2022/12/04 00:56:45;;;;;;;71.18;34.15;;;;;;;1.90;79.46;101832.84;5066402;28;20044;-50
2022/12/04 00:59:12;;;;;;;66.55;31.15;;;;;;;1.87;79.69;101835.13;5067030;28;20458;-47
2022/12/04 01:01:37;;;;;;;66.47;31.48;;;;;;;1.85;79.88;101831.59;5062899;28;20036;-46
2022/12/04 01:04:03;;;;;;;75.50;32.65;;;;;;;1.79;79.91;101838.72;5065880;28;20353;-47
2022/12/04 01:06:32;;;;;;;69.07;32.25;;;;;;;1.84;80.12;101842.50;5059763;28;20498;-49
2022/12/04 01:08:58;;;;;;;65.55;31.48;;;;;;;1.79;80.07;101833.66;5070000;28;20457;-50
2022/12/04 01:11:26;;;;;;;67.03;31.75;;;;;;;1.81;80.22;101835.53;5067397;28;20050;-49
2022/12/04 01:13:52;;;;;;;67.20;32.10;;;;;;;1.82;79.99;101839.88;5066422;28;20042;-45
2022/12/04 01:16:24;;;;;;;65.07;31.42;;;;;;;1.80;79.99;101843.91;5064636;28;20594;-48
2022/12/04 01:18:50;;;;;;;68.45;32.10;;;;;;;1.86;80.22;101840.97;5063086;28;20489;-47
2022/12/04 01:21:16;;;;;;;68.95;32.20;;;;;;;1.93;79.85;101843.22;5060232;28;20075;-47
2022/12/04 01:23:42;;;;;;;68.28;31.83;;;;;;;1.97;79.81;101844.34;5068883;28;20031;-48
2022/12/04 01:26:08;;;;;;;65.22;32.72;;;;;;;1.94;79.73;101844.09;5069156;28;20020;-47
2022/12/04 01:28:34;;;;;;;71.20;34.03;;;;;;;1.89;79.51;101848.84;5068141;28;20100;-47
2022/12/04 01:31:12;;;;;;;64.55;32.53;;;;;;;1.94;79.80;101847.50;5069173;28;20067;-48
2022/12/04 01:33:38;;;;;;;64.43;31.33;;;;;;;1.95;79.79;101845.91;5063288;28;20519;-48
2022/12/04 01:36:07;;;;;;;67.00;31.38;;;;;;;1.99;79.61;101843.69;5069560;28;20516;-45
2022/12/04 01:38:33;;;;;;;66.25;32.58;;;;;;;1.88;79.80;101853.03;5066972;28;20215;-48
2022/12/04 01:40:59;;;;;;;69.10;33.53;;;;;;;1.86;79.92;101846.03;5067806;28;20031;-49
2022/12/04 01:43:26;;;;;;;66.70;31.65;;;;;;;1.83;80.10;101848.34;5065331;28;20028;-46
2022/12/04 01:45:56;;;;;;;67.45;32.85;;;;;;;1.83;80.51;101844.16;5068092;28;20569;-46
2022/12/04 01:48:33;;;;;;;68.25;33.47;;;;;;;1.75;80.33;101844.31;5068211;28;20461;-49
2022/12/04 01:51:11;;;;;;;66.40;31.67;;;;;;;1.74;80.59;101840.88;5063879;28;20024;-48
2022/12/04 01:53:40;;;;;;;70.10;33.22;;;;;;;1.77;80.69;101840.25;5070448;28;20498;-48
2022/12/04 01:56:06;;;;;;;71.07;33.42;;;;;;;1.78;80.39;101836.97;5070240;28;20032;-47
2022/12/04 01:58:36;;;;;;;68.30;33.13;;;;;;;1.79;80.60;101820.97;5072959;28;20024;-47
2022/12/04 02:01:05;;;;;;;69.25;33.22;;;;;;;1.80;80.25;101827.81;5071873;28;20070;-45
2022/12/04 02:03:31;;;;;;;65.85;32.92;;;;;;;1.76;80.42;101828.31;5072835;28;20524;-47
2022/12/04 02:05:56;;;;;;;70.53;32.65;;;;;;;1.74;80.59;101829.88;5069432;28;20119;-46
2022/12/04 02:08:22;;;;;;;64.20;32.08;;;;;;;1.77;80.68;101825.94;5071870;28;20055;-46
2022/12/04 02:11:20;;;;;;;64.82;32.63;;;;;;;1.82;80.29;101832.25;5070449;28;20369;-48
2022/12/04 02:13:48;;;;;;;70.95;32.88;;;;;;;1.86;80.38;101830.81;5056249;28;20541;-44
2022/12/04 02:16:13;;;;;;;66.18;31.73;;;;;;;1.83;80.39;101823.00;5069491;28;20368;-48
2022/12/04 02:18:57;;;;;;;70.47;33.72;;;;;;;1.78;80.47;101822.63;5065502;28;20033;-45
2022/12/04 02:21:36;;;;;;;67.45;33.60;;;;;;;1.72;80.71;101826.34;5066395;28;20020;-47
2022/12/04 02:24:29;;;;;;;69.65;32.03;;;;;;;1.75;80.90;101826.56;5064149;28;20025;-46
2022/12/04 02:27:02;;;;;;;67.30;32.38;;;;;;;1.70;81.11;101825.31;5066952;28;20049;-47
2022/12/04 02:29:51;;;;;;;68.35;32.85;;;;;;;1.72;81.21;101826.34;5062233;28;20030;-50
2022/12/04 02:32:18;;;;;;;66.45;32.70;;;;;;;1.73;80.88;101818.84;5065321;28;20035;-49
2022/12/04 02:35:12;;;;;;;69.63;33.75;;;;;;;1.77;81.00;101830.13;5066534;28;20032;-44
2022/12/04 02:37:42;;;;;;;70.90;33.70;;;;;;;1.74;80.43;101828.22;5070337;28;20147;-46
2022/12/04 02:40:41;;;;;;;70.70;33.40;;;;;;;1.81;80.81;101821.97;5068042;28;20025;-45
2022/12/04 02:43:14;;;;;;;65.57;34.38;;;;;;;1.73;80.46;101831.50;5068243;28;20040;-45
2022/12/04 02:45:46;;;;;;;70.75;33.75;;;;;;;1.68;80.80;101834.44;5069645;28;20385;-47
2022/12/04 02:48:17;;;;;;;70.97;35.40;;;;;;;1.61;81.15;101828.00;5069551;28;20032;-47
2022/12/04 02:50:46;;;;;;;68.57;34.20;;;;;;;1.61;81.24;101823.81;5067975;28;20024;-47
2022/12/04 02:53:18;;;;;;;67.30;32.80;;;;;;;1.65;81.11;101824.97;5068600;28;20388;-48
2022/12/04 02:55:49;;;;;;;69.00;33.65;;;;;;;1.68;81.28;101809.09;5068179;28;20024;-48
2022/12/04 02:58:37;;;;;;;68.43;33.53;;;;;;;1.67;81.06;101808.22;5063289;28;20035;-44
2022/12/04 03:01:18;;;;;;;66.88;32.17;;;;;;;1.69;81.18;101805.78;5065730;28;20433;-47
2022/12/04 03:04:05;;;;;;;72.25;33.85;;;;;;;1.68;81.12;101801.50;5069226;28;20020;-47
2022/12/04 03:06:37;;;;;;;74.03;34.92;;;;;;;1.67;80.99;101800.59;5067452;28;20068;-50
2022/12/04 03:09:10;;;;;;;70.40;35.22;;;;;;;1.65;81.25;101803.81;5069369;28;20029;-49
2022/12/04 03:11:37;;;;;;;69.05;33.55;;;;;;;1.68;81.53;101802.38;5066225;28;20028;-47
2022/12/04 03:14:17;;;;;;;72.88;34.20;;;;;;;1.67;81.42;101803.16;5069752;28;20035;-46
2022/12/04 03:16:47;;;;;;;77.43;34.08;;;;;;;1.61;81.63;101807.72;5065297;28;20043;-47
2022/12/04 03:19:17;;;;;;;70.20;33.55;;;;;;;1.65;81.57;101812.28;5070127;28;20020;-47
2022/12/04 03:21:48;;;;;;;66.20;32.80;;;;;;;1.68;81.63;101804.91;5066114;28;20025;-46
2022/12/04 03:24:38;;;;;;;72.07;33.75;;;;;;;1.73;81.23;101816.31;5062869;28;20086;-47
2022/12/04 03:27:12;;;;;;;70.88;32.88;;;;;;;1.73;81.15;101806.16;5058922;28;20520;-45
2022/12/04 03:29:48;;;;;;;75.35;34.85;;;;;;;1.72;80.84;101808.59;5065838;28;20039;-44
2022/12/04 03:32:33;;;;;;;70.75;33.72;;;;;;;1.73;81.17;101803.63;5070692;28;20033;-45
2022/12/04 03:35:10;;;;;;;70.82;33.92;;;;;;;1.69;81.31;101806.69;5068614;28;20024;-48
2022/12/04 03:37:49;;;;;;;69.85;33.95;;;;;;;1.74;81.19;101801.97;5069418;28;20060;-47
2022/12/04 03:40:37;;;;;;;68.82;34.20;;;;;;;1.77;81.17;101800.56;5067847;28;20028;-47
2022/12/04 03:43:26;;;;;;;74.22;35.47;;;;;;;1.74;81.16;101805.38;5065465;28;20030;-46
2022/12/04 03:46:02;;;;;;;78.15;35.53;;;;;;;1.77;81.09;101800.56;5065352;28;20028;-47
2022/12/04 03:48:40;;;;;;;70.20;35.13;;;;;;;1.73;80.98;101798.56;5067009;28;20023;-49
2022/12/04 03:51:17;;;;;;;74.93;34.65;;;;;;;1.75;81.13;101798.66;5065543;28;20032;-46
2022/12/04 03:53:56;;;;;;;73.45;35.85;;;;;;;1.77;81.22;101795.50;5068891;28;20494;-48
2022/12/04 03:56:27;;;;;;;70.20;34.30;;;;;;;1.82;81.05;101795.84;5067110;28;20035;-49
2022/12/04 03:59:07;;;;;;;72.03;34.35;;;;;;;1.83;80.88;101790.03;5068634;28;20024;-47
2022/12/04 04:01:39;;;;;;;70.22;34.45;;;;;;;1.74;80.97;101797.78;5071261;28;20108;-48
2022/12/04 04:04:09;;;;;;;71.78;35.35;;;;;;;1.73;81.03;101793.47;5069529;28;20101;-48
2022/12/04 04:06:54;;;;;;;71.22;33.40;;;;;;;1.79;80.98;101788.88;5063976;28;20026;-47
2022/12/04 04:09:25;;;;;;;73.03;35.08;;;;;;;1.75;81.09;101797.00;5064789;28;20024;-48
2022/12/04 04:12:01;;;;;;;74.22;36.28;;;;;;;1.71;81.31;101792.50;5065400;28;20028;-48
2022/12/04 04:25:45;;;;;;;67.25;33.75;;;;;;;1.70;81.22;101793.25;5064042;28;20109;-48
2022/12/04 04:28:29;;;;;;;71.57;33.72;;;;;;;1.76;81.17;101793.75;5065571;28;20365;-49
2022/12/04 04:31:11;;;;;;;74.50;34.75;;;;;;;1.70;81.06;101793.25;5065682;28;20040;-50
2022/12/04 04:33:54;;;;;;;69.32;33.95;;;;;;;1.69;81.40;101791.47;5066912;28;20044;-48
2022/12/04 04:36:32;;;;;;;69.32;34.83;;;;;;;1.61;81.51;101788.34;5066717;28;20036;-46
2022/12/04 04:39:14;;;;;;;70.78;34.70;;;;;;;1.59;81.77;101791.53;5062442;28;20500;-46
2022/12/04 04:41:53;;;;;;;77.80;35.05;;;;;;;1.57;82.12;101791.38;5063866;28;20056;-47
2022/12/04 04:44:23;;;;;;;73.88;34.80;;;;;;;1.61;81.71;101792.53;5066773;28;20102;-48
2022/12/04 04:46:55;;;;;;;74.55;35.45;;;;;;;1.63;81.90;101793.50;5064691;28;20579;-48
2022/12/04 04:49:24;;;;;;;70.25;35.95;;;;;;;1.67;81.80;101797.19;5065847;28;20016;-46
2022/12/04 04:51:50;;;;;;;;;;;;;;;1.77;81.05;101803.09;5065435;28;20042;-48
2022/12/04 04:54:16;;;;;;;65.57;32.13;;;;;;;1.68;81.60;101793.88;5060130;28;20314;-48
2022/12/04 04:56:43;;;;;;;68.18;33.78;;;;;;;1.65;81.53;101798.72;5068763;28;20021;-48
2022/12/04 04:59:10;;;;;;;70.35;33.28;;;;;;;1.65;81.54;101796.19;5068828;28;20024;-48
2022/12/04 05:01:36;;;;;;;70.25;33.25;;;;;;;1.70;81.67;101797.41;5067713;28;20485;-47
2022/12/04 05:04:03;;;;;;;71.18;34.28;;;;;;;1.70;81.57;101803.41;5068638;28;20393;-48
2022/12/04 05:06:29;;;;;;;66.85;33.85;;;;;;;1.69;81.66;101793.13;5065396;28;20509;-48
2022/12/04 05:08:54;;;;;;;72.40;34.75;;;;;;;1.72;81.56;101791.72;5068893;28;20100;-48
2022/12/04 05:11:19;;;;;;;71.65;34.65;;;;;;;1.70;81.56;101807.56;5069084;28;20060;-48
2022/12/04 05:13:45;;;;;;;72.05;33.47;;;;;;;1.69;81.82;101795.66;5069352;28;20067;-49
2022/12/04 05:16:13;;;;;;;70.65;34.75;;;;;;;1.73;81.79;101802.75;5068862;28;20024;-45
2022/12/04 05:18:38;;;;;;;74.45;35.08;;;;;;;1.72;81.75;101795.91;5068933;28;20032;-48
2022/12/04 05:21:16;;;;;;;71.00;33.95;;;;;;;1.77;81.72;101798.03;5069271;28;20036;-49
2022/12/04 05:23:41;;;;;;;70.32;34.13;;;;;;;1.78;81.48;101798.91;5069043;28;20032;-47
2022/12/04 05:26:07;;;;;;;68.22;34.13;;;;;;;1.76;81.50;101806.41;5068375;28;20038;-49
2022/12/04 05:28:32;;;;;;;70.45;34.03;;;;;;;1.79;81.63;101806.63;5070546;28;20020;-48
2022/12/04 05:31:00;;;;;;;70.18;33.65;;;;;;;1.80;81.33;101808.41;5073641;28;20388;-48
2022/12/04 05:33:26;;;;;;;72.47;34.10;;;;;;;1.72;81.63;101806.94;5071033;28;20160;-48
2022/12/04 05:35:56;;;;;;;66.95;34.20;;;;;;;1.67;82.08;101799.72;5072897;28;20020;-45
2022/12/04 05:38:22;;;;;;;72.50;35.20;;;;;;;1.60;82.12;101801.78;5071211;28;20035;-45
2022/12/04 05:40:47;;;;;;;70.20;34.47;;;;;;;1.57;82.73;101803.19;5072342;28;20029;-48
2022/12/04 05:43:12;;;;;;;66.55;34.67;;;;;;;1.59;82.38;101801.66;5070703;28;20089;-49
2022/12/04 05:45:38;;;;;;;73.38;35.22;;;;;;;1.55;82.70;101798.00;5071314;28;20020;-48
2022/12/04 05:48:04;;;;;;;73.68;35.33;;;;;;;1.56;82.68;101798.88;5067277;28;20033;-50
2022/12/04 05:50:29;;;;;;;70.97;33.85;;;;;;;1.61;82.82;101787.44;5070503;28;20016;-44
2022/12/04 05:52:57;;;;;;;77.78;34.63;;;;;;;1.66;82.35;101792.88;5070833;28;20032;-46
2022/12/04 05:55:22;;;;;;;78.65;35.88;;;;;;;1.71;82.55;101789.06;5067121;28;20032;-48
2022/12/04 05:57:47;;;;;;;68.30;33.58;;;;;;;1.70;82.51;101782.19;5067653;28;20436;-49
2022/12/04 06:00:14;;;;;;;74.22;33.75;;;;;;;1.71;82.51;101779.81;5071946;28;20477;-48
2022/12/04 06:02:39;;;;;;;69.32;35.13;;;;;;;1.77;82.27;101787.00;5072524;28;20441;-46
2022/12/04 06:05:04;;;;;;;71.72;35.67;;;;;;;1.67;82.46;101785.41;5072242;28;20154;-46
2022/12/04 06:07:30;;;;;;;75.20;34.60;;;;;;;1.70;82.42;101780.59;5072753;28;20071;-49
2022/12/04 06:09:55;;;;;;;67.65;33.13;;;;;;;1.80;82.32;101772.91;5072379;28;20012;-48
2022/12/04 06:12:20;;;;;;;64.82;33.30;;;;;;;1.78;82.02;101771.91;5072047;28;20107;-49
2022/12/04 06:14:46;;;;;;;74.05;34.80;;;;;;;1.76;81.91;101777.59;5072126;28;20104;-47
2022/12/04 06:17:11;;;;;;;70.75;34.42;;;;;;;1.74;82.33;101776.63;5070796;28;20032;-47
2022/12/04 06:19:36;;;;;;;71.70;34.30;;;;;;;1.66;82.77;101780.22;5070695;28;20020;-48
2022/12/04 06:22:02;;;;;;;72.03;34.65;;;;;;;1.65;82.75;101778.44;5072311;28;20039;-46
2022/12/04 06:24:27;;;;;;;71.70;36.85;;;;;;;1.60;82.48;101778.09;5071291;28;20024;-47
2022/12/04 06:26:59;;;;;;;73.68;36.25;;;;;;;1.65;82.77;101776.78;5071383;28;20383;-47
2022/12/04 06:29:24;;;;;;;74.32;35.65;;;;;;;1.65;82.70;101779.34;5067850;28;20369;-47
2022/12/04 06:31:50;;;;;;;72.00;35.13;;;;;;;1.69;82.74;101781.31;5068696;28;20032;-48
2022/12/04 06:34:16;;;;;;;69.88;35.28;;;;;;;1.67;82.68;101787.06;5070548;28;20052;-47
2022/12/04 06:36:41;;;;;;;69.30;33.75;;;;;;;1.66;82.67;101785.28;5070130;28;20054;-46
2022/12/04 06:39:08;;;;;;;73.15;35.28;;;;;;;1.68;82.68;101786.28;5069570;28;20086;-46
2022/12/04 06:41:33;;;;;;;70.00;34.60;;;;;;;1.69;82.70;101788.94;5070245;28;20725;-47
2022/12/04 06:43:59;;;;;;;75.47;35.08;;;;;;;1.72;82.46;101786.66;5070039;28;20210;-48
2022/12/04 06:46:27;;;;;;;71.95;34.50;;;;;;;1.72;82.69;101795.91;5068919;28;20119;-46
2022/12/04 06:48:54;;;;;;;70.55;34.80;;;;;;;1.70;82.65;101787.28;5069773;28;20444;-47
2022/12/04 06:51:25;;;;;;;69.40;35.10;;;;;;;1.73;82.67;101788.41;5070621;28;20266;-46
2022/12/04 06:53:51;;;;;;;68.05;33.75;;;;;;;1.75;82.69;101794.47;5069920;28;20469;-47
2022/12/04 06:56:20;;;;;;;70.45;34.47;;;;;;;1.77;82.50;101792.09;5064620;28;20416;-47
2022/12/04 06:58:50;;;;;;;68.72;33.55;;;;;;;1.82;82.48;101795.84;5070148;28;20031;-48
2022/12/04 07:01:18;;;;;;;64.15;32.22;;;;;;;1.80;82.15;101784.69;5070648;28;20513;-49
2022/12/04 07:03:44;;;;;;;67.35;33.33;;;;;;;1.78;82.13;101797.28;5070726;28;20028;-49
2022/12/04 07:06:33;;;;;;;67.00;33.33;;;;;;;1.77;82.24;101799.69;5070501;28;20029;-45
2022/12/04 07:09:03;;;;;;;65.82;34.60;;;;;;;1.76;82.51;101802.97;5069288;28;20469;-51
2022/12/04 07:11:29;;;;;;;64.32;31.88;;;;;;;1.77;82.48;101805.66;5066507;28;20016;-45
2022/12/04 07:13:55;;;;;;;68.07;33.85;;;;;;;1.76;82.27;101813.09;5067245;28;20098;-50
2022/12/04 07:16:21;;;;;;;64.32;32.25;;;;;;;1.78;82.24;101811.59;5066901;28;20016;-49
2022/12/04 07:18:52;;;;;;;64.35;34.25;;;;;;;1.72;82.12;101814.53;5068320;28;20457;-47
2022/12/04 07:21:20;;;;;;;63.75;31.67;;;;;;;1.71;82.61;101822.03;5067800;28;20016;-47
2022/12/04 07:23:50;;;;;;;60.15;31.52;;;;;;;1.70;82.77;101818.63;5065449;28;20028;-48
2022/12/04 07:26:16;;;;;;;64.53;32.10;;;;;;;1.73;82.49;101813.75;5067135;28;20028;-49
2022/12/04 07:28:44;;;;;;;62.30;31.63;;;;;;;1.71;82.59;101829.63;5062931;28;20099;-47
2022/12/04 07:31:14;;;;;;;63.17;32.83;;;;;;;1.71;82.99;101827.97;5066597;28;20016;-48
2022/12/04 07:33:40;;;;;;;60.25;30.50;;;;;;;1.75;82.65;101827.44;5066009;28;20048;-44
2022/12/04 07:36:08;;;;;;;57.13;30.23;;;;;;;1.68;82.02;101824.31;5069462;28;20458;-47
2022/12/04 07:38:34;;;;;;;60.72;31.08;;;;;;;1.74;82.72;101829.88;5066226;28;20346;-48
2022/12/04 07:41:01;;;;;;;57.13;30.27;;;;;;;1.76;82.35;101818.19;5065225;28;20028;-50
2022/12/04 07:43:28;;;;;;;56.75;30.08;;;;;;;1.78;82.21;101820.09;5068812;28;20032;-48
2022/12/04 07:45:53;;;;;;;63.75;31.95;;;;;;;1.77;82.49;101825.06;5064335;28;20017;-48
2022/12/04 07:48:19;;;;;;;61.00;30.13;;;;;;;1.81;82.44;101821.97;5060877;28;20032;-47
2022/12/04 07:50:44;;;;;;;61.35;30.15;;;;;;;1.80;82.24;101815.13;5060412;28;20016;-53
2022/12/04 07:53:09;;;;;;;56.80;29.52;;;;;;;1.83;82.48;101817.91;5057551;28;20037;-48
2022/12/04 07:55:35;;;;;;;54.35;29.00;;;;;;;1.85;82.21;101834.13;5068641;28;20472;-49
2022/12/04 07:58:00;;;;;;;56.17;29.52;;;;;;;1.86;82.25;101825.75;5070338;28;20109;-46
2022/12/04 08:00:26;;;;;;;59.38;29.25;;;;;;;1.91;82.06;101828.66;5067573;28;20392;-49
2022/12/04 08:02:51;;;;;;;55.47;29.13;;;;;;;1.88;81.59;101824.22;5069081;28;20107;-51
2022/12/04 08:05:17;;;;;;;54.40;29.23;;;;;;;1.87;82.04;101830.94;5067127;28;20373;-48
2022/12/04 08:07:42;;;;;;;55.80;28.40;;;;;;;1.90;82.21;101831.97;5067943;28;20369;-49
2022/12/04 08:10:08;;;;;;;56.80;29.45;;;;;;;1.86;81.67;101834.25;5066998;28;20030;-48
2022/12/04 08:12:34;;;;;;;54.05;27.55;;;;;;;1.81;81.93;101829.56;5066919;28;20385;-48
2022/12/04 08:14:59;;;;;;;51.85;27.58;;;;;;;1.77;82.24;101836.06;5066619;28;20028;-50
2022/12/04 08:17:25;;;;;;;56.42;28.20;;;;;;;1.78;82.23;101836.97;5065477;28;20078;-46
2022/12/04 08:19:50;;;;;;;51.95;27.60;;;;;;;1.79;82.14;101843.78;5066340;28;20406;-47
2022/12/04 08:22:16;;;;;;;52.83;28.42;;;;;;;1.77;82.31;101847.88;5065886;28;20032;-49
2022/12/04 08:24:42;;;;;;;53.47;26.38;;;;;;;1.76;82.25;101847.00;5066301;28;20615;-45
2022/12/04 08:27:07;;;;;;;55.75;27.90;;;;;;;1.81;82.55;101850.75;5066080;28;20032;-47
2022/12/04 08:29:33;;;;;;;55.65;28.50;;;;;;;1.77;82.46;101845.34;5066848;28;20104;-48
2022/12/04 08:31:58;;;;;;;54.28;27.75;;;;;;;1.80;82.39;101843.91;5067527;28;20063;-48
2022/12/04 08:34:23;;;;;;;51.55;26.55;;;;;;;1.81;82.26;101848.22;5068708;28;20594;-50
2022/12/04 08:36:49;;;;;;;49.38;26.52;;;;;;;1.81;82.14;101853.28;5067592;28;20028;-48
2022/12/04 08:39:14;;;;;;;49.75;27.13;;;;;;;1.82;82.42;101850.00;5067700;28;20089;-47
2022/12/04 08:41:40;;;;;;;56.42;27.73;;;;;;;1.86;82.39;101856.19;5067052;28;20047;-47
2022/12/04 08:44:05;;;;;;;59.78;28.00;;;;;;;1.91;81.81;101846.41;5066824;28;20025;-49
2022/12/04 08:46:31;;;;;;;53.63;29.35;;;;;;;1.91;82.15;101843.88;5068201;28;20031;-50
2022/12/04 08:48:56;;;;;;;51.65;26.55;;;;;;;1.92;81.89;101840.56;5066627;28;20530;-47
2022/12/04 08:51:30;;;;;;;53.25;27.80;;;;;;;1.93;81.77;101839.78;5067737;28;20112;-47
2022/12/04 08:53:58;;;;;;;48.33;26.05;;;;;;;1.92;82.03;101838.91;5068645;28;20423;-51
2022/12/04 08:56:26;;;;;;;47.92;26.00;;;;;;;1.96;81.56;101834.97;5068529;28;20473;-48
2022/12/04 08:58:51;;;;;;;48.63;25.75;;;;;;;1.97;81.72;101830.00;5065769;28;20047;-48
2022/12/04 09:01:16;;;;;;;51.20;26.60;;;;;;;2.01;81.54;101831.16;5066545;28;20457;-48
2022/12/04 09:03:42;;;;;;;48.60;26.13;;;;;;;2.03;81.45;101832.16;5072421;28;20029;-48
2022/12/04 09:06:09;;;;;;;50.85;26.33;;;;;;;2.06;81.34;101837.44;5069181;28;20032;-48
2022/12/04 09:08:35;;;;;;;48.65;24.88;;;;;;;2.04;80.97;101832.25;5072344;28;20029;-48
2022/12/04 09:11:06;;;;;;;46.08;24.98;;;;;;;2.06;81.36;101832.38;5073541;28;20095;-47
2022/12/04 09:13:32;;;;;;;47.50;26.02;;;;;;;2.04;81.17;101834.78;5072013;28;20035;-48
2022/12/04 09:15:57;;;;;;;46.53;24.67;;;;;;;2.03;80.99;101839.75;5073415;28;20025;-47
2022/12/04 09:18:23;;;;;;;48.42;26.63;;;;;;;1.93;81.05;101835.59;5071718;28;20036;-45
2022/12/04 09:20:59;;;;;;;49.63;25.67;;;;;;;1.98;81.44;101835.97;5072826;28;20469;-47
2022/12/04 09:23:25;;;;;;;43.17;24.15;;;;;;;1.94;81.41;101834.84;5068703;28;20107;-48
2022/12/04 09:25:52;;;;;;;46.05;24.67;;;;;;;1.92;81.22;101843.09;5071750;28;20028;-49
2022/12/04 09:28:17;;;;;;;48.75;25.10;;;;;;;1.91;81.80;101838.81;5069238;28;20021;-48
2022/12/04 09:30:43;;;;;;;47.45;25.50;;;;;;;1.94;81.94;101839.03;5070982;28;20382;-50
2022/12/04 09:33:08;;;;;;;43.90;23.65;;;;;;;1.98;81.74;101847.00;5070079;28;20057;-47
2022/12/04 09:35:33;;;;;;;46.67;25.10;;;;;;;2.04;81.23;101847.47;5073425;28;20024;-49
2022/12/04 09:37:59;;;;;;;46.72;24.15;;;;;;;2.09;81.14;101846.19;5070911;28;20162;-48
2022/12/04 09:40:33;;;;;;;42.97;23.33;;;;;;;2.19;81.20;101846.91;5071322;28;20401;-44
2022/12/04 09:43:14;;;;;;;42.13;22.70;;;;;;;2.22;80.51;101847.13;5070326;28;20033;-49
2022/12/04 09:45:52;;;;;;;42.40;23.15;;;;;;;2.25;80.81;101845.72;5072009;28;20020;-47
2022/12/04 09:48:20;;;;;;;37.75;20.08;;;;;;;2.26;79.22;101851.69;5071042;28;20037;-48
2022/12/04 09:50:48;;;;;;;40.85;20.08;;;;;;;2.23;79.27;101847.25;5068914;28;20013;-47
2022/12/04 09:53:33;;;;;;;37.40;20.27;;;;;;;2.26;78.99;101851.69;5070856;28;20497;-48
2022/12/04 09:56:05;;;;;;;36.53;19.67;;;;;;;2.22;79.10;101847.13;5069081;28;20539;-48
2022/12/04 09:58:53;;;;;;;36.70;17.95;;;;;;;2.29;79.09;101839.22;5071570;28;20078;-49
2022/12/04 10:01:24;;;;;;;35.58;19.55;;;;;;;2.25;79.25;101839.78;5070920;28;20035;-45
2022/12/04 10:03:53;;;;;;;35.85;19.48;;;;;;;2.29;79.16;101845.19;5071617;28;20021;-50
2022/12/04 10:06:25;;;;;;;37.10;19.80;;;;;;;2.26;79.02;101841.53;5068691;28;20021;-47
2022/12/04 10:09:33;;;;;;;37.15;20.13;;;;;;;2.24;79.30;101845.59;5069099;28;20287;-48
2022/12/04 10:12:12;;;;;;;39.70;19.92;;;;;;;2.23;79.46;101851.44;5069860;28;20036;-47
2022/12/04 10:14:45;;;;;;;36.35;19.73;;;;;;;2.12;79.43;101846.44;5070203;28;20027;-45
2022/12/04 10:17:23;;;;;;;36.75;19.92;;;;;;;2.10;79.49;101850.50;5068503;28;20037;-47
2022/12/04 10:20:01;;;;;;;36.53;19.58;;;;;;;2.07;79.74;101851.94;5072131;28;20479;-47
2022/12/04 10:22:35;;;;;;;35.97;19.33;;;;;;;2.05;79.76;101849.25;5069234;28;20373;-47
2022/12/04 10:25:07;;;;;;;36.20;19.33;;;;;;;2.07;79.77;101841.78;5068045;28;20356;-47
2022/12/04 10:27:44;;;;;;;35.33;19.23;;;;;;;2.06;79.46;101847.59;5070180;28;20031;-47
2022/12/04 10:30:19;;;;;;;33.63;18.98;;;;;;;2.05;79.73;101836.56;5067344;28;20025;-48
2022/12/04 10:32:46;;;;;;;37.33;19.40;;;;;;;2.05;79.58;101838.22;5068003;28;20067;-50
2022/12/04 10:35:18;;;;;;;34.30;19.05;;;;;;;2.03;79.95;101838.09;5065900;28;20431;-51
2022/12/04 10:37:46;;;;;;;39.75;19.13;;;;;;;1.97;80.09;101839.28;5068503;28;20031;-49
2022/12/04 10:40:22;;;;;;;37.45;19.70;;;;;;;1.96;80.21;101843.47;5069355;28;20024;-48
2022/12/04 10:43:08;;;;;;;37.65;19.58;;;;;;;2.01;80.61;101846.38;5066787;28;20591;-46
2022/12/04 10:45:33;;;;;;;33.42;18.92;;;;;;;2.00;80.12;101842.03;5067744;28;20101;-49
2022/12/04 10:47:59;;;;;;;37.25;19.67;;;;;;;2.05;80.04;101850.91;5067064;28;20131;-45
2022/12/04 10:50:24;;;;;;;33.75;18.85;;;;;;;2.01;80.23;101849.78;5068209;28;20028;-50
2022/12/04 10:52:50;;;;;;;38.80;20.13;;;;;;;2.06;80.11;101853.56;5067742;28;20416;-46
2022/12/04 10:55:31;;;;;;;36.63;20.13;;;;;;;2.00;80.22;101844.56;5065978;28;20111;-50
2022/12/04 10:57:57;;;;;;;38.42;19.20;;;;;;;1.90;80.77;101842.09;5062403;28;20028;-48
2022/12/04 11:00:28;;;;;;;36.17;19.17;;;;;;;1.98;80.70;101848.66;5057939;28;20033;-49
2022/12/04 11:02:57;;;;;;;38.05;20.27;;;;;;;2.02;80.75;101836.34;5062268;28;20457;-49
2022/12/04 11:05:31;;;;;;;37.17;18.77;;;;;;;2.05;80.70;101839.09;5063469;28;20481;-47
2022/12/04 11:07:58;;;;;;;36.42;19.45;;;;;;;2.02;80.35;101823.66;5061563;28;20025;-50
2022/12/04 11:10:33;;;;;;;32.85;18.23;;;;;;;2.01;80.53;101815.94;5059398;28;20037;-47
2022/12/04 11:13:13;;;;;;;33.25;18.27;;;;;;;1.96;80.50;101819.75;5060448;28;20107;-49
2022/12/04 11:15:53;;;;;;;31.88;17.48;;;;;;;1.97;80.73;101824.06;5062295;28;20043;-49
2022/12/04 11:18:25;;;;;;;33.33;18.00;;;;;;;1.95;80.79;101815.47;5062755;28;20028;-50
2022/12/04 11:21:02;;;;;;;35.13;18.85;;;;;;;1.95;80.88;101813.81;5064237;28;20377;-47
2022/12/04 11:23:34;;;;;;;36.22;19.48;;;;;;;1.97;80.97;101817.34;5064485;28;20032;-50
2022/12/04 11:26:00;;;;;;;32.58;18.15;;;;;;;2.03;80.90;101804.25;5063285;28;20432;-48
2022/12/04 11:28:31;;;;;;;32.90;18.35;;;;;;;2.01;80.92;101809.19;5059798;28;20178;-48
2022/12/04 11:31:00;;;;;;;33.13;17.73;;;;;;;2.02;81.19;101805.00;5062324;28;20027;-49
2022/12/04 11:33:36;;;;;;;33.03;18.15;;;;;;;2.09;81.25;101805.59;5062371;28;20649;-48
2022/12/04 11:36:14;;;;;;;32.63;18.48;;;;;;;2.15;80.64;101798.44;5062799;28;20093;-52
2022/12/04 11:38:40;;;;;;;35.35;19.05;;;;;;;2.12;80.78;101788.09;5062983;28;20028;-50
2022/12/04 11:41:05;;;;;;;31.60;18.33;;;;;;;2.20;80.58;101803.00;5062413;28;20035;-46